Skip to Main Content

If you see just a black screen when trying to view Live Traffic cameras, please click inside the window to get video to play. An update to certain browsers is not allowing the video to auto-play when the window opens. 

SEARCH:
Location Air RH Dwp Precip Type Wind Speed Wind Gust Direction Pavement Temperature Date/Time
Hatem Bridge US 40 E/B 68 80 62 None Calm Calm N 64 - 64 7/20/2018 4:31:00 AM
I-270 at I-370 66 82 61 None Calm Calm N 74 - 76 7/20/2018 4:30:00 AM
I-270 at MD-109 61 98 61 None Calm Calm N 69 - 69 7/20/2018 4:30:00 AM
I-495 at American Legion Bridge 63 100 63 None Calm Calm NW 72 - 72 7/20/2018 4:30:00 AM
I-68 at Savage Mt 58 100 58 None Calm Calm S 63 - 64 7/20/2018 4:30:00 AM
I-68 at Sideling Hill 64 95 62 None Calm Calm NW 70 - 72 7/20/2018 4:25:00 AM
I-68 at US 219 59 91 57 None 5 mph 10 mph SE 61 - 67 7/20/2018 4:30:00 AM
I-68 at WV Line 58 85 54 None Calm Calm N 64 - 67 7/20/2018 4:30:00 AM
I-695 at I-83 63 88 60 None Calm 4 mph N 73 - 74 7/20/2018 4:30:00 AM
I-695 on FSK Bridge 73 78 66 None Calm Calm W 74 - 74 7/20/2018 4:34:00 AM
I-70 at Fred-Wash Co. 66 80 60 None Calm 8 mph SE 69 - 72 7/20/2018 4:30:00 AM
I-70 at I-695 64 91 62 None Calm 6 mph SW 72 - 74 7/20/2018 4:30:00 AM
I-70 at I-81 64 95 62 None Calm Calm N - 7/20/2018 4:30:00 AM
I-70 at MD-27 66 81 60 None Calm Calm N 70 - 71 7/20/2018 4:30:00 AM
I-70 at MD-32 60 94 58 None Calm Calm N 70 - 72 7/20/2018 4:30:00 AM
I-83 at MD-137 61 100 61 None Calm Calm NW 69 - 69 7/20/2018 4:30:00 AM
I-95 at I-695 NE 66 85 62 None Calm Calm N 73 - 75 7/20/2018 4:34:00 AM
I-95 at Patuxent River 65 91 62 None Calm 5 mph NE 70 - 71 7/20/2018 4:30:00 AM
I-95 at Tydings Bridge 68 77 61 None 7 mph 14 mph E 72 - 73 7/20/2018 4:30:00 AM
I-95/495 at I-295 72 70 62 None Calm 4 mph E 74 - 76 7/20/2018 4:30:00 AM
I-97 at MD-100 - - - No Data Available - - No Data Available -
I-97 at MD-32 63 92 61 None Calm Calm N 72 - 73 7/20/2018 4:30:00 AM
IS 70 W of I-270 - - - No Data Available - - No Data Available 73 - 73 7/20/2018 4:30:00 AM
MD 136 @ MD 646 60 97 60 No Data Available Calm Calm N 74 - 74 7/20/2018 4:30:00 AM
MD 20 at MD 21 63 87 59 None Calm Calm NE 74 - 74 7/20/2018 4:30:00 AM
MD 23 at Meadowtree Road 63 89 60 No Data Available Calm Calm W 74 - 74 7/20/2018 4:30:00 AM
MD 231 at Patuxent River 65 93 63 None Calm Calm N 71 - 75 7/20/2018 4:30:00 AM
MD 24 at Jarrettsville Road 62 91 60 No Data Available Calm Calm N 76 - 76 7/20/2018 4:30:00 AM
MD 260 at Cox Rd 65 93 63 None Calm Calm N 78 - 78 7/20/2018 4:30:00 AM
MD-135 at Salt Dome 58 98 57 None Calm 7 mph E 67 - 67 7/20/2018 4:30:00 AM
MD-140 at MD-97 62 90 59 None Calm 4 mph SE 70 - 73 7/20/2018 4:30:00 AM
MD-200 EB at Bonifant Rd - - - No Data Available - - No Data Available -
MD-200 WB at Muncaster Mill Rd 58 95 57 None Calm Calm N 68 - 69 7/20/2018 4:31:00 AM
MD-213 at Sassafras River 66 91 64 None Calm Calm NE 72 - 72 7/20/2018 4:30:00 AM
MD-24 at Rock St Park 59 100 59 None Calm Calm N 67 - 67 7/20/2018 4:35:00 AM
MD-30 at PA Line 65 93 63 None Calm 5 mph SE 74 - 74 7/20/2018 4:30:00 AM
MD-33 at Knapps Narrows Drawbridge 74 78 67 None 4 mph 11 mph E 79 - 79 7/20/2018 4:30:00 AM
MD-344 at MD-224 67 90 64 None Calm Calm N 79 - 79 7/20/2018 4:30:00 AM
MD-4 at Patuxent River 73 74 64 None 9 mph 12 mph SE 74 - 79 7/20/2018 4:34:00 AM
MD-404 at Choptank River 63 94 61 None Calm Calm NE 71 - 73 7/20/2018 4:30:00 AM
MD-43 at MD-150 66 96 65 None Calm Calm N 75 - 76 7/20/2018 4:30:00 AM
MD-51 at Oldtown Salt Dome 58 96 57 None Calm Calm N 74 - 74 7/20/2018 4:30:00 AM
MD-64 at MD-418 61 90 58 None Calm Calm NE 75 - 76 7/20/2018 4:30:00 AM
US 301 at MD 305 63 89 60 None Calm Calm E 72 - 75 7/20/2018 4:30:00 AM
US-1 at Baltimore / Harford Co. Line 60 95 59 None Calm Calm NW 69 - 69 7/20/2018 4:30:00 AM
US-1 at Conowingo Dam 64 91 62 None Calm Calm N 72 - 72 7/20/2018 4:30:00 AM
US-13 at US-113 61 92 59 None Calm Calm N 74 - 77 7/20/2018 4:30:00 AM
US-13 at US-50 62 90 59 None Calm Calm NE 74 - 74 7/20/2018 4:30:00 AM
US-15 at MD-140 59 93 57 None Calm Calm N 69 - 71 7/20/2018 4:30:00 AM
US-301 at MD-5 64 95 62 None Calm Calm N 74 - 75 7/20/2018 4:30:00 AM
US-301 at Potomac 70 90 67 None Calm 4 mph E 70 - 71 7/20/2018 4:34:00 AM
US-340 at MD-180 60 93 58 None Calm Calm NW 70 - 72 7/20/2018 4:30:00 AM
US-50 at Choptank 68 91 65 None Calm 5 mph E 73 - 74 7/20/2018 4:30:00 AM
US-50 at I-95 66 88 62 None Calm Calm NE 75 - 75 7/20/2018 4:30:00 AM
US-50 at MD-2 70 90 67 None Calm Calm N 76 - 77 7/20/2018 4:30:00 AM
US-50 at MD-331 67 84 63 None Calm 5 mph E 73 - 73 7/20/2018 4:30:00 AM
US-50 at OC Drawbridge 70 87 66 None Calm Calm NW 75 - 75 7/20/2018 4:30:00 AM
US-50 at Table Rock Rd 61 87 57 None 7 mph 11 mph E 66 - 66 7/20/2018 4:30:00 AM
US-50 Kent Narrow Bridge 71 83 66 None Calm 5 mph E 73 - 75 7/20/2018 4:30:00 AM
WPL Pier 31 73 75 65 None 6 mph 8 mph E 74 - 74 7/20/2018 4:30:00 AM
Location Air RH Dwp Precip Type Wind Speed Wind Gust Direction Pavement Temperature Date/Time